NWS Home NWS Lubbock West Texas Mesonet Latest Conditions as of 0703 PM, Sun Mar 29, 2020

Latest   N   C   S   Daily Sum   3hrΔ   24hrΔ   Soil Data 
Site Map   24hr Precip   72hr Precip   Google Plot


Station Time of Last Temp Dew Pt. RH Wind Direction Wind Speed Wind Gust Max Wind Max Temp Min Temp Max RH Min RH Altimeter 1HR Rain Today's Rain Solar Rad Red FlagRFTI
Abernathy 5ENE  06:55 PM 64 30 29% SE1520 23 mph 146° @ 0530 PM 67 33 81 19 30.06" 0 0 107   0
Adrian 6WSW  06:55 PM 62 22 21% S1821 31 mph 189° @ 0422 PM 65 33 74 18 30.03" 0 0 145   0
Aiken 3WSW  06:55 PM 63 30 28% SE1921 28 mph 138° @ 0612 PM 69 29 84 15 30.08" 0 0 135   0
Amarillo 15NNW   06:55 PM 66 24 20% S1720 26 mph 174° @ 0552 PM 69 29 95 17 30.02" 0 0 142   0
Amarillo 7SSE  06:55 PM 64 25 22% S1618 26 mph 216° @ 0418 PM 68 27 92 18 30.05" 0 0 110   0
Amarillo 9NNE  06:55 PM 66 23 19% S1922 25 mph 166° @ 0654 PM 68 25 94 17 30.02" 0 0 106   0
Amherst 1NE  06:55 PM 64 24 21% SE1621 28 mph 157° @ 0235 PM 69 33 74 14 30.04" 0 0 104   0
Andrews 2E  06:55 PM 68 27 21% SE1622 23 mph 131° @ 0330 PM 70 39 57 16 30.04" 0 0 242   0
Anton 6SSW  06:55 PM 64 26 23% SE1822 28 mph 170° @ 0150 PM 68 32 74 15 30.04" 0 0 111   0
Aspermont 3NE  06:55 PM 67 41 40% SE1015 19 mph 345° @ 1235 AM 72 37 89 29 30.08" 0 0 63   0
Big Bend NP - Castolon  06:55 PM 86 49 28% E1721 28 mph 109° @ 0445 PM 88 51 28 9 29.85" 0 0 246   0
Big Bend NP - Persimmon Gap  06:55 PM 81 44 27% E1217 29 mph 162° @ 0304 PM 84 59 27 7 29.93" 0 0 122   0
Big Lake 1WNW  06:55 PM 70 31 24% E1419 23 mph 123° @ 0444 PM 74 41 57 13 30.04" 0 0 90   0
Bootleg 11WNW  06:55 PM 62 18 18% S1920 30 mph 203° @ 0332 PM 66 30 79 17 30.05" 0 0 107   0
Boys Ranch 1WSW  06:55 PM 68 24 19% S1517 28 mph 179° @ 0530 PM 69 29 87 18 30.01" 0 0 103   0
Brownfield 2S  06:55 PM 66 26 22% SE1520 28 mph 158° @ 0610 PM 68 38 67 17 30.04" 0 0 179   0
Canadian 6E  06:55 PM 67 28 23% SE1114 23 mph 195° @ 0136 PM 68 28 97 20 30.04" 0 0 214   0
Caprock Canyons State Park  06:55 PM 65 33 30% SE1420 24 mph 156° @ 0533 PM 70 35 85 21 30.07" 0 0 135   0
Childress 2NNE  06:55 PM 65 39 39% SE1215 23 mph 132° @ 0550 PM 71 37 80 24 30.08" 0 0 112   0
Clarendon 2WSW  06:55 PM 65 29 27% SE1317 21 mph 173° @ 0525 PM 68 33 82 25 30.06" 0 0 126   0
Claude 12SW  06:55 PM 64 23 21% SE1317 24 mph 142° @ 0430 PM 68 35 73 19 30.05" 0 0 121   0
Clyde 2WNW  06:55 PM 65 42 42% E810 21 mph 327° @ 0226 AM 70 43 79 23 30.10" 0 0 91   0
Colorado City 5NW  06:55 PM 68 27 22% SE1113 20 mph 10° @ 0252 AM 74 40 69 15 30.08" 0 0 93   0
Comanche Springs  06:55 PM 67 42 40% SE1014 19 mph 126° @ 0439 PM 69 31 94 31 30.08" 0 0 87   0
Coyanosa 2N  06:55 PM 76 35 22% E1824 29 mph 103° @ 0624 PM 79 36 65 11 29.95" 0 0 236   0
Crane 1NNW   06:55 PM 74 36 24% SE1720 27 mph 162° @ 0422 PM 75 39 60 10 30.00" 0 0 262   0
Crowell 1E  06:55 PM 67 44 45% SE89 15 mph 131° @ 0406 PM 70 43 73 36 30.09" 0 0 95   0
Dell City  06:55 PM 70 28 21% NE66 12 mph 334° @ 0111 AM 72 34 83 15 29.99" 0 0 110   0
Denver City 7WNW  06:55 PM 64 20 18% SE1924 28 mph 157° @ 0510 PM 67 34 70 15 30.03" 0 0 120   0
Dimmitt 2NE  06:55 PM 62 27 27% SE1723 27 mph 182° @ 0340 PM 67 30 84 18 30.04" 0 0 129   0
Doole 3WNW  06:55 PM 68 42 38% E1012 23 mph 351° @ 0505 AM 73 39 83 19 30.08" 0 0 35   0
Dora NM 2SW  06:55 PM 62 18 18% S2025 28 mph 155° @ 0650 PM 69 33 57 11 30.03" 0 0 95 5 0
Dozier 3W  06:55 PM 66 35 33% SE1418 19 mph 182° @ 0326 PM 69 33 91 24 30.08" 0 0 112   0
Earth 9WSW  06:55 PM 64 20 18% SE2023 27 mph 160° @ 0625 PM 70 28 78 13 30.04" 0 0 104 4 1
Endee NM 2SW  06:55 PM 66 22 18% S1823 30 mph 166° @ 0612 PM 68 29 83 16 30.00" 0 0 158   0
Estelline 3SSE  06:55 PM 67 36 32% SE1114 18 mph 148° @ 0547 PM 72 38 75 22 30.07" 0 0 110   0
Floydada 2NNE  06:55 PM 63 31 30% SE1317 19 mph 149° @ 0350 PM 69 30 85 15 30.07" 0 0 92   0
Fluvanna 3WNW  06:55 PM 65 27 24% SE1317 22 mph 132° @ 0405 PM 70 41 67 18 30.07" 0 0 82   0
Fort Chadbourne  06:55 PM 66 36 33% SE1012 19 mph 123° @ 0501 PM 70 37 87 23 30.09" 0 0 54   0
Fort Lancaster  03:15 AM 46 16 29% N11 9 mph 11° @ 0254 AM 47 40 38 26 30.11" 0 0 0   0
Fort Lewis CO  05:40 PM 45 20 36% E35 23 mph 88° @ 0359 PM 46 22 80 35 30.05" 0 0 404   0
Fort McKavett  06:55 PM 68 41 37% E710 17 mph 93° @ 0619 PM 72 35 90 20 30.07" 0 0 71   0
Friona 2NE  06:55 PM 63 23 22% S1317 29 mph 159° @ 0515 PM 67 26 92 17 30.03" 0 0 116   0
Fritch 1WNW  06:55 PM 67 23 19% S1922 28 mph 193° @ 0525 PM 68 33 83 17 30.03" 0 0 149   0
Gail 2ESE  06:55 PM 66 25 22% SE1118 20 mph 138° @ 0355 PM 71 37 73 18 30.06" 0 0 82   0
Goodlett 3W  06:55 PM 66 39 38% SE1518 20 mph 131° @ 0455 PM 70 40 79 28 30.07" 0 0 100   0
Goodnight  06:55 PM 64 32 31% SE1721 22 mph 139° @ 0636 PM 67 30 100 28 30.07" 0 0 130   0
Graham 5SSW  06:55 PM 66 25 22% SE1924 25 mph 151° @ 0650 PM 69 42 60 15 30.05" 0 0 112   0
Guadalupe Mtns Natl Park  06:55 PM 59 18 19% NE56 13 mph 107° @ 0453 PM 63 40 31 15 30.09" 0 0 120   0
Guthrie 10WSW  06:55 PM 68 36 31% SE913 21 mph 129° @ 0435 PM 71 39 74 25 30.06" 0 0 73   0
Hackberry 2SSE  06:55 PM 67 41 39% SE89 18 mph 89° @ 0358 PM 70 39 82 31 30.08" 0 0 97   0
Happy 1E  06:55 PM 63 24 23% SE2023 29 mph 191° @ 0316 PM 68 30 82 19 30.06" 0 0 132   0
Hart 3N  06:55 PM 63 25 23% SE1825 25 mph 143° @ 0655 PM 68 29 92 16 30.05" 0 0 137   0
Haskell 1NW  06:55 PM 66 44 45% SE1014 22 mph 29° @ 0105 AM 71 41 89 32 30.08" 0 0 80   0
Hefner 1SW  06:55 PM 66 45 47% SE911 18 mph 14° @ 1202 AM 70 42 89 38 30.09" 0 0 86   0
Hereford 2NW  06:55 PM 63 22 20% S1419 24 mph 174° @ 0505 PM 66 26 89 18 30.03" 0 0 106   0
Hobbs NM 5NW  06:55 PM 65 18 16% SE1520 23 mph 159° @ 0546 PM 67 37 67 13 30.04" 0 0 100   0
Jayton 1SSE  06:55 PM 67 37 34% SE1115 22 mph 135° @ 0525 PM 71 38 85 25 30.07" 0 0 93   0
Junction 1SSW  06:55 PM 74 36 25% SE912 16 mph 37° @ 0310 PM 76 35 98 20 30.05" 0 0 51   0
Kent 9E  06:55 PM 73 30 20% N1217 22 mph 74° @ 1253 PM 76 40 32 12 29.99" 0 0 109   0
Knox City 3NW  06:55 PM 65 47 53% SE810 15 mph 117° @ 0540 PM 71 38 94 41 30.08" 0 0 72   0
Lake Alan Henry 1NW  06:55 PM 66 37 35% SE1316 20 mph 117° @ 0344 PM 73 39 81 23 30.06" 0 0 102   0
Lake McClellan 2NW  06:55 PM 63 30 28% SE1820 21 mph 183° @ 1208 PM 67 31 86 23 30.07" 0 0 164   0
Lamesa 2SE  06:55 PM 65 22 20% SE1217 25 mph 152° @ 0410 PM 71 38 71 16 30.06" 0 0 77   0
Lesley 2S  06:55 PM 67 33 28% SE1618 23 mph 148° @ 0628 PM 72 35 81 22 30.06" 0 0 139   0
Levelland 4S  06:55 PM 65 25 22% SE1724 26 mph 169° @ 0435 PM 68 36 67 15 30.04" 0 0 109   0
Lomax 1SSE  06:55 PM 68 30 24% E1719 24 mph 125° @ 0554 PM 72 35 68 14 30.06" 0 0 105   0
Lubbock 3WNW TTU  06:55 PM 65 24 21% SE1319 26 mph 154° @ 0310 PM 69 35 73 17 30.06" 0 0 118   0
McAdoo 3NNW  06:55 PM 63 36 36% E1521 24 mph 51° @ 1251 AM 68 38 77 22 30.08" 0 0 111   0
McCamey 1SSW  06:55 PM 73 38 28% SE1923 32 mph 125° @ 0239 PM 75 41 61 13 30.01" 0 0 151   0
McLean 1E  06:55 PM 64 31 29% SE1217 20 mph 187° @ 0300 PM 66 34 81 23 30.06" 0 0 123   0
Memphis 1NE  06:55 PM 68 31 25% SE1116 19 mph 120° @ 0435 PM 70 33 88 22 30.06" 0 0 118   0
Menard 2NW   06:55 PM 67 38 34% E1012 19 mph 84° @ 0146 PM 70 36 92 27 30.08" 0 0 79   0
Mertzon 3NNE  06:55 PM 68 29 23% E813 18 mph 125° @ 0234 PM 73 35 85 16 30.07" 0 0 67   0
Morton 1ENE  06:55 PM 65 19 17% S1520 26 mph 158° @ 0235 PM 69 33 60 11 30.04" 0 0 105   0
Muleshoe 2SSW  06:55 PM 64 19 18% S1724 28 mph 168° @ 0330 PM 69 27 89 12 30.04" 0 0 114   0
New Home  06:55 PM 65 28 25% SE1620 22 mph 183° @ 0244 PM 68 38 65 17 30.07" 0 0 131   0
Northfield 1S  06:55 PM 66 34 30% SE1318 21 mph 136° @ 0435 PM 72 33 85 22 30.07" 0 0 87   0
O'Donnell 1N  06:55 PM 65 27 24% SE1520 22 mph 144° @ 0435 PM 69 38 67 19 30.05" 0 0 97   0
Odell 4ENE  06:50 PM 65 44 45% SE911 18 mph 145° @ 0519 PM 69 37 92 31 30.09" 0 0 92   0
Olton 6S  06:55 PM 63 25 23% SE1724 26 mph 152° @ 0510 PM 68 29 88 17 30.06" 0 0 98   0
Paducah 10SW  06:55 PM 67 39 37% SE1214 19 mph 123° @ 0455 PM 70 41 72 27 30.07" 0 0 118   0
Palo Duro 4E (JA Ranch)  06:55 PM 65 33 30% SE1821 24 mph 136° @ 0648 PM 69 29 91 25 30.06" 0 0 147   0
Palo Duro Canyon SP Floor  06:55 PM 68 23 18% SE1115 23 mph 134° @ 0458 PM 72 32 79 15 30.04" 0 0 113   0
Palo Duro Canyon State Park Rim  06:55 PM 65 21 19% S1420 22 mph 194° @ 0356 PM 70 32 75 17 30.06" 0 0 142   0
Palo Duro Reservoir 1NW   06:55 PM 65 26 22% S1113 27 mph 171° @ 0334 PM 67 27 88 19 30.04" 0 0 185   0
Pampa 2E  06:55 PM 63 29 28% SE1315 24 mph 174° @ 1235 PM 65 31 85 25 30.06" 0 0 150   0
Panhandle 1SSW  06:55 PM 63 31 31% SE1620 28 mph 173° @ 0550 PM 67 29 92 21 30.06" 0 0 131   0
Plains 3N  06:55 PM 65 24 21% SE1923 25 mph 154° @ 0135 PM 67 34 68 17 30.03" 0 0 104   0
Plainview 1S  06:55 PM 63 30 28% SE1319 23 mph 157° @ 0310 PM 68 35 80 19 30.06" 0 0 112   0
Post 1NE  06:55 PM 68 26 21% SE1318 21 mph 143° @ 0645 PM 72 41 60 15 30.05" 0 0 127   0
Ralls 1SE  06:55 PM 64 28 26% SE1521 23 mph 139° @ 0325 PM 66 34 75 19 30.07" 0 0 117   0
Reese Center  06:55 PM 65 25 22% SE1418 31 mph 171° @ 0136 PM 69 35 71 15 30.05" 0 0 102   0
Roaring Springs 3N  06:55 PM 65 39 39% SE1317 19 mph 166° @ 1255 PM 68 37 87 25 30.07" 0 0 105   0
Romero 11SSW  06:55 PM 67 20 17% S1821 28 mph 206° @ 0513 PM 68 30 77 16 29.99" 0 0 243   0
Rotan 5W  06:55 PM 67 32 27% E1316 26 mph 338° @ 0125 AM 70 44 72 26 30.08" 0 0 74   0
San Angelo 7NW  06:55 PM 69 28 22% E1318 18 mph 107° @ 0555 PM 72 37 72 16 30.06" 0 0 132   0
Seagraves 1SW  06:55 PM 66 24 21% SE1419 25 mph 159° @ 0430 PM 69 33 69 17 30.04" 0 0 125   0
Segovia 7SSW  06:55 PM 72 34 25% SE1014 20 mph 108° @ 0535 PM 75 45 62 16 30.08" 0 0 71   0
Seminole 2NNE  06:55 PM 65 22 19% SE1822 24 mph 150° @ 0540 PM 69 37 62 15 30.03" 0 0 107   0
Seymour 3NW  06:55 PM 65 48 56% SE810 15 mph 114° @ 0515 PM 70 40 95 40 30.08" 0 0 71   0
Sierra Blanca 1SSE  06:55 PM 72 17 12% N23 21 mph 165° @ 0238 PM 74 39 42 11 30.00" 0 0 223   0
Silverton 7ESE  06:55 PM 63 29 28% SE1721 23 mph 145° @ 0450 PM 69 28 88 18 30.07" 0 0 129   0
Slaton 2NE  06:55 PM 65 26 23% SE1722 22 mph 152° @ 0655 PM 67 38 74 23 30.05" 0 0 116   0
Smyer  06:55 PM 65 25 21% SE1317 24 mph 158° @ 0241 PM 69 37 66 14 30.05" 0 0 118   0
Snyder 3E  06:55 PM 65 28 25% SE1115 23 mph 3° @ 0210 AM 73 40 71 18 30.08" 0 0 49   0
Snyder 3SSW  06:55 PM 66 32 28% SE1010 20 mph 145° @ 0511 PM 72 43 72 18 30.08" 0 0 79   0
South Plains 3ENE  06:55 PM 63 29 27% SE1518 32 mph 139° @ 0359 PM 69 29 90 18 30.08" 0 0 134   0
Spur 1W  06:55 PM 66 34 30% SE1215 19 mph 147° @ 0645 PM 69 36 82 28 30.05" 0 0 118   0
St. Lawrence 5SW  06:55 PM 68 28 22% SE1822 26 mph 112° @ 0610 PM 73 40 62 16 30.04" 0 0 129   0
Stamford 5ESE  06:55 PM 66 45 46% SE1012 25 mph 39° @ 0158 AM 70 42 92 36 30.09" 0 0 34   0
Sterling City 4WSW  06:55 PM 67 34 29% E1518 21 mph 100° @ 0536 PM 71 31 95 18 30.07" 0 0 64   0
Stinnett 1NNW  06:55 PM 66 23 20% S1012 26 mph 187° @ 0550 PM 67 33 82 18 30.04" 0 0 234   0
Stratford 4WNW  06:55 PM 63 26 25% S1516 29 mph 217° @ 0540 PM 66 25 83 21 30.03" 0 0 200   0
Sundown 8WSW  06:55 PM 66 19 16% SE1824 28 mph 151° @ 0310 PM 70 34 64 11 30.04" 0 0 105   0
Sweetwater 11SW   06:55 PM 66 27 23% SE1316 21 mph 125° @ 0641 PM 70 42 72 18 30.10" 0 0 125   0
Tahoka 3NNE  06:55 PM 65 27 23% SE1923 23 mph 137° @ 0655 PM 69 36 68 19 30.05" 0 0 165   0
Tarzan 2WNW  06:55 PM 68 26 21% E1820 24 mph 111° @ 0530 PM 72 39 61 16 30.05" 0 0 96   0
Tatum NM 2SW  06:55 PM 64 22 20% SE1518 28 mph 166° @ 0350 PM 68 33 73 15 30.03" 0 0 115   0
Throckmorton 1SW  06:55 PM 65 46 50% SE78 21 mph 330° @ 1232 AM 71 44 89 37 30.09" 0 0 64   0
Truscott 2SE  06:55 PM 67 45 46% E810 17 mph 14° @ 1208 AM 70 40 88 35 30.08" 0 0 65   0
Tulia 2ENE  06:50 PM 63 27 26% SE1722 24 mph 177° @ 0450 PM 67 27 83 20 30.05" 0 0 141   0
Turkey 2WSW  06:55 PM 66 33 30% SE1418 24 mph 125° @ 0600 PM 70 38 71 22 30.06" 0 0 91   0
Umbarger 3NNE  06:55 PM 64 24 22% S1922 25 mph 169° @ 0652 PM 68 24 91 17 30.04" 0 0 124   0
Van Horn 3ENE  06:55 PM 75 22 14% NE1113 19 mph 193° @ 0457 PM 78 36 43 12 29.97" 0 0 119   0
Vigo Park  06:55 PM 64 25 23% S1417 29 mph 155° @ 0352 PM 69 27 90 19 30.07" 0 0 133   0
Wall 2E  06:55 PM 70 31 24% E1416 31 mph 360° @ 0541 AM 74 39 72 18 30.08" 0 0 60   0
Weinert 2NNE  06:55 PM 67 42 41% SE911 25 mph 8° @ 1209 AM 71 41 84 32 30.09" 0 0 60   0
Welch  06:55 PM 66 26 22% SE1820 25 mph 137° @ 0459 PM 71 35 69 15 30.05" 0 0 97   0
White River Lake 6NW  06:55 PM 65 33 30% SE1319 22 mph 111° @ 0635 PM 69 39 68 21 30.06" 0 0 106   0
Wolfforth 6SSW  06:55 PM 66 27 23% SE1723 25 mph 159° @ 0240 PM 69 36 68 15 30.05" 0 0 118   0

West Texas Mesonet Home   Site Map/Menu  NWS Lubbock Soil Data  Daily Summary Page  24hr Precip  72hr Precip  Google Plot